Time;durP1;ratioP1;P1;durP2;ratioP2;P2;SDS_P1;SDS_P2;PMS_P1;PMS_P2;Temp;Humidity;BMP_temperature;BMP_pressure;BME280_temperature;BME280_humidity;BME280_pressure;Samples;Min_cycle;Max_cycle;Signal;HPM_P1;HPM_P2
2023/06/04 00:01:52;;;;;;;;;;;;;;;16.49;61.36;98639.28;4992055;27;102813;-60
2023/06/04 00:04:19;;;;;;;;;;;;;;;16.58;60.57;98635.75;5004733;27;103336;-58
2023/06/04 00:06:47;;;;;;;;;;;;;;;16.56;61.89;98644.91;5006001;27;103361;-60
2023/06/04 00:09:15;;;;;;;;;;;;;;;16.47;62.11;98649.25;5003472;27;102692;-58
2023/06/04 00:11:45;;;;;;;;;;;;;;;16.60;60.99;98647.09;5005738;27;104177;-58
2023/06/04 00:14:13;;;;;;;;;;;;;;;16.39;62.98;98656.34;4997488;27;103418;-60
2023/06/04 00:16:42;;;;;;;;;;;;;;;16.08;63.13;98653.09;5017948;27;103183;-58
2023/06/04 00:19:11;;;;;;;;;;;;;;;15.90;63.64;98649.50;4999018;27;103888;-60
2023/06/04 00:21:39;;;;;;;;;;;;;;;15.82;63.91;98647.59;5007459;27;104170;-60
2023/06/04 00:24:07;;;;;;;;;;;;;;;15.86;63.78;98650.81;4983810;27;104319;-59
2023/06/04 00:26:35;;;;;;;;;;;;;;;16.06;62.85;98639.06;5007089;27;103190;-59
2023/06/04 00:29:03;;;;;;;;;;;;;;;15.88;62.60;98640.84;5006905;27;103918;-59
2023/06/04 00:31:31;;;;;;;;;;;;;;;15.92;62.76;98631.53;4994838;28;102814;-60
2023/06/04 00:33:59;;;;;;;;;;;;;;;16.17;62.49;98633.53;5017687;27;103420;-58
2023/06/04 00:36:28;;;;;;;;;;;;;;;16.29;61.74;98636.84;5009623;27;103254;-58
2023/06/04 00:38:56;;;;;;;;;;;;;;;16.34;61.51;98643.44;5002119;27;104544;-58
2023/06/04 00:41:23;;;;;;;;;;;;;;;16.04;61.47;98649.03;5003983;27;102992;-58
2023/06/04 00:43:55;;;;;;;;;;;;;;;15.78;61.59;98648.84;5013587;27;103287;-58
2023/06/04 00:46:25;;;;;;;;;;;;;;;16.01;61.27;98657.31;4995826;27;103270;-58
2023/06/04 00:48:53;;;;;;;;;;;;;;;16.10;61.18;98662.63;5014288;27;102974;-59
2023/06/04 00:51:21;;;;;;;;;;;;;;;16.00;61.35;98661.00;4994536;27;104146;-58
2023/06/04 00:53:51;;;;;;;;;;;;;;;15.46;63.84;98666.97;5019658;27;103244;-58
2023/06/04 00:56:19;;;;;;;;;;;;;;;15.63;63.85;98656.44;5015715;27;103249;-58
2023/06/04 00:58:47;;;;;;;;;;;;;;;15.77;63.28;98662.31;4997470;27;102721;-58
2023/06/04 01:01:25;;;;;;;;;;;;;;;15.85;63.23;98659.75;4983259;27;104216;-58
2023/06/04 01:03:55;;;;;;;;;;;;;;;15.50;64.94;98673.69;4994818;27;103935;-58
2023/06/04 01:06:28;;;;;;;;;;;;;;;15.22;66.31;98669.22;5002308;27;103142;-58
2023/06/04 01:08:58;;;;;;;;;;;;;;;14.93;66.03;98674.53;4997064;27;103778;-58
2023/06/04 01:11:36;;;;;;;;;;;;;;;15.30;64.96;98664.88;4996324;28;102827;-59
2023/06/04 01:14:04;;;;;;;;;;;;;;;15.59;63.54;98673.69;5018366;27;103303;-58
2023/06/04 01:16:36;;;;;;;;;;;;;;;15.51;64.28;98676.25;4998384;27;103194;-58
2023/06/04 01:19:08;;;;;;;;;;;;;;;14.86;66.28;98674.25;5011819;27;102666;-59
2023/06/04 01:21:38;;;;;;;;;;;;;;;14.86;65.43;98678.72;5002399;27;102741;-60
2023/06/04 01:24:08;;;;;;;;;;;;;;;14.99;64.89;98679.28;4990131;27;103297;-59
2023/06/04 01:26:37;;;;;;;;;;;;;;;15.22;63.52;98675.38;4986145;27;104936;-57
2023/06/04 01:29:05;;;;;;;;;;;;;;;15.03;64.08;98673.56;5000608;27;102757;-58
2023/06/04 01:31:33;;;;;;;;;;;;;;;15.36;63.44;98674.94;4990268;28;103859;-60
2023/06/04 01:34:01;;;;;;;;;;;;;;;15.43;62.90;98667.25;5008133;27;103231;-59
2023/06/04 01:36:29;;;;;;;;;;;;;;;15.11;64.72;98672.84;4995116;27;103170;-60
2023/06/04 01:38:59;;;;;;;;;;;;;;;14.99;65.05;98673.97;5020047;27;102738;-59
2023/06/04 01:41:28;;;;;;;;;;;;;;;15.28;63.89;98668.66;5009412;27;102819;-60
2023/06/04 01:43:56;;;;;;;;;;;;;;;14.94;66.42;98662.91;5005155;27;103303;-59
2023/06/04 01:46:24;;;;;;;;;;;;;;;14.99;66.56;98663.31;5005821;27;103301;-60
2023/06/04 01:48:52;;;;;;;;;;;;;;;14.44;68.94;98672.75;5020808;27;102650;-60
2023/06/04 01:51:19;;;;;;;;;;;;;;;14.35;68.48;98663.78;4988732;28;102812;-58
2023/06/04 01:53:47;;;;;;;;;;;;;;;14.71;66.90;98659.66;5003544;27;102925;-58
2023/06/04 01:56:15;;;;;;;;;;;;;;;14.67;67.17;98666.25;5005908;27;103228;-57
2023/06/04 01:58:44;;;;;;;;;;;;;;;14.63;67.24;98671.94;5001084;27;103707;-58
2023/06/04 02:01:12;;;;;;;;;;;;;;;14.64;67.24;98673.66;5014886;27;102864;-58
2023/06/04 02:03:40;;;;;;;;;;;;;;;14.37;67.27;98667.13;4983293;27;102978;-57
2023/06/04 02:06:08;;;;;;;;;;;;;;;14.24;67.80;98671.81;4987136;27;103384;-57
2023/06/04 02:08:36;;;;;;;;;;;;;;;14.11;67.26;98663.25;4984583;28;103010;-58
2023/06/04 02:11:04;;;;;;;;;;;;;;;14.23;66.96;98664.81;5015501;27;102962;-58
2023/06/04 02:13:32;;;;;;;;;;;;;;;14.18;66.58;98664.38;5002470;28;103213;-58
2023/06/04 02:16:01;;;;;;;;;;;;;;;14.38;66.08;98674.13;5016129;27;103351;-60
2023/06/04 02:18:29;;;;;;;;;;;;;;;14.54;65.01;98678.09;5020394;27;103753;-60
2023/06/04 02:20:57;;;;;;;;;;;;;;;14.56;65.49;98676.16;5009107;27;105074;-59
2023/06/04 02:23:25;;;;;;;;;;;;;;;14.18;67.54;98672.34;4995824;27;104088;-59
2023/06/04 02:25:54;;;;;;;;;;;;;;;14.17;67.67;98676.00;4997438;27;103372;-59
2023/06/04 02:28:23;;;;;;;;;;;;;;;14.30;66.72;98671.28;5007291;27;102783;-59
2023/06/04 02:30:51;;;;;;;;;;;;;;;13.91;67.84;98672.94;5005292;27;103564;-59
2023/06/04 02:33:20;;;;;;;;;;;;;;;13.68;68.35;98683.84;5019129;27;103277;-61
2023/06/04 02:35:49;;;;;;;;;;;;;;;13.87;67.68;98681.28;5017935;27;103133;-60
2023/06/04 02:38:18;;;;;;;;;;;;;;;13.89;66.99;98676.72;4997330;27;102785;-60
2023/06/04 02:40:45;;;;;;;;;;;;;;;13.96;66.73;98683.16;4987843;27;102819;-60
2023/06/04 02:43:13;;;;;;;;;;;;;;;13.85;66.55;98680.59;5007261;27;103276;-60
2023/06/04 02:45:41;;;;;;;;;;;;;;;13.61;66.41;98685.34;4988197;28;103159;-60
2023/06/04 02:48:09;;;;;;;;;;;;;;;13.78;66.28;98682.09;4996818;28;102742;-60
2023/06/04 02:50:42;;;;;;;;;;;;;;;13.59;66.24;98682.81;5016665;27;104209;-60
2023/06/04 02:53:10;;;;;;;;;;;;;;;13.93;65.21;98689.56;4991805;27;103472;-58
2023/06/04 02:55:37;;;;;;;;;;;;;;;13.63;66.88;98680.75;5020288;27;103195;-57
2023/06/04 02:58:05;;;;;;;;;;;;;;;13.41;67.72;98687.03;5023112;27;102817;-58
2023/06/04 03:00:33;;;;;;;;;;;;;;;13.77;66.55;98685.72;4988431;27;104081;-58
2023/06/04 03:03:02;;;;;;;;;;;;;;;13.78;66.71;98687.41;4990479;27;103286;-58
2023/06/04 03:05:31;;;;;;;;;;;;;;;13.58;67.45;98680.28;5014613;27;103181;-58
2023/06/04 03:08:02;;;;;;;;;;;;;;;13.59;67.36;98684.59;5019428;27;102668;-58
2023/06/04 03:10:31;;;;;;;;;;;;;;;13.75;67.16;98685.00;5011492;27;102780;-60
2023/06/04 03:12:58;;;;;;;;;;;;;;;13.13;70.83;98693.78;5013683;27;104120;-58
2023/06/04 03:15:26;;;;;;;;;;;;;;;13.45;69.08;98691.09;5017455;27;103132;-58
2023/06/04 03:17:54;;;;;;;;;;;;;;;13.70;67.73;98698.66;5004079;27;102787;-58
2023/06/04 03:20:23;;;;;;;;;;;;;;;13.44;69.58;98707.16;4988372;27;102929;-58
2023/06/04 03:22:52;;;;;;;;;;;;;;;13.74;67.85;98694.78;5007665;27;104152;-60
2023/06/04 03:25:21;;;;;;;;;;;;;;;13.16;72.24;98704.16;4996744;28;103345;-59
2023/06/04 03:27:49;;;;;;;;;;;;;;;13.46;71.81;98705.19;4993410;28;102912;-60
2023/06/04 03:30:17;;;;;;;;;;;;;;;13.58;71.50;98712.16;4991117;28;102838;-58
2023/06/04 03:33:05;;;;;;;;;;;;;;;13.84;70.25;98705.44;5008803;27;104225;-58
2023/06/04 03:35:34;;;;;;;;;;;;;;;13.96;70.80;98704.41;4999181;27;105257;-58
2023/06/04 03:38:01;;;;;;;;;;;;;;;13.92;71.70;98709.13;4995114;28;102726;-58
2023/06/04 03:40:32;;;;;;;;;;;;;;;13.49;73.97;98705.78;4990307;27;102818;-58
2023/06/04 03:43:00;;;;;;;;;;;;;;;13.22;76.01;98714.22;4987790;27;104527;-58
2023/06/04 03:45:31;;;;;;;;;;;;;;;13.65;74.14;98718.59;5007010;27;103269;-58
2023/06/04 03:47:59;;;;;;;;;;;;;;;13.93;70.99;98709.97;4988273;27;102847;-58
2023/06/04 03:50:29;;;;;;;;;;;;;;;13.92;71.67;98716.28;5004747;27;102867;-59
2023/06/04 03:52:59;;;;;;;;;;;;;;;13.63;72.74;98717.91;5022646;27;104044;-58
2023/06/04 03:55:31;;;;;;;;;;;;;;;13.90;70.33;98720.84;5019469;27;103208;-58
2023/06/04 03:58:01;;;;;;;;;;;;;;;13.74;71.10;98720.50;4992156;28;102874;-58
2023/06/04 04:00:29;;;;;;;;;;;;;;;13.70;71.02;98724.38;5008576;27;102746;-58
2023/06/04 04:03:00;;;;;;;;;;;;;;;13.87;68.67;98716.66;5001206;27;103342;-58
2023/06/04 04:05:30;;;;;;;;;;;;;;;13.95;68.37;98713.34;4997945;27;105278;-58
2023/06/04 04:07:58;;;;;;;;;;;;;;;14.01;68.59;98723.44;5001050;27;105107;-58
2023/06/04 04:10:30;;;;;;;;;;;;;;;13.97;68.31;98719.38;5035483;27;102822;-58
2023/06/04 04:12:59;;;;;;;;;;;;;;;13.68;70.27;98732.47;5020061;27;103867;-60
2023/06/04 04:15:31;;;;;;;;;;;;;;;13.76;69.55;98729.16;5006081;27;103236;-58
2023/06/04 04:18:01;;;;;;;;;;;;;;;13.87;68.94;98719.31;5005768;28;102615;-58
2023/06/04 04:20:29;;;;;;;;;;;;;;;14.10;68.12;98727.97;5006629;27;102728;-58
2023/06/04 04:23:02;;;;;;;;;;;;;;;14.35;67.89;98732.88;4997065;27;103517;-59
2023/06/04 04:25:32;;;;;;;;;;;;;;;14.38;68.23;98735.25;5002989;27;105439;-58
2023/06/04 04:28:06;;;;;;;;;;;;;;;14.08;71.22;98734.38;5009160;27;102706;-60
2023/06/04 04:30:34;;;;;;;;;;;;;;;14.19;70.49;98743.13;5007995;27;103885;-60
2023/06/04 04:33:07;;;;;;;;;;;;;;;14.49;69.57;98729.00;5006614;28;103204;-58
2023/06/04 04:35:47;;;;;;;;;;;;;;;14.33;68.85;98734.84;5009400;27;103253;-58
2023/06/04 04:38:18;;;;;;;;;;;;;;;14.51;67.99;98743.03;5022910;27;102603;-59
2023/06/04 04:40:52;;;;;;;;;;;;;;;14.68;67.61;98738.88;5026655;27;102977;-59
2023/06/04 04:43:31;;;;;;;;;;;;;;;14.96;66.87;98738.94;5007177;27;102906;-59
2023/06/04 04:46:04;;;;;;;;;;;;;;;15.16;66.29;98744.31;5008610;27;105133;-59
2023/06/04 04:48:38;;;;;;;;;;;;;;;15.34;65.24;98742.63;5004802;27;102740;-59
2023/06/04 04:51:11;;;;;;;;;;;;;;;15.37;65.39;98743.19;5039277;27;102892;-59
2023/06/04 04:53:42;;;;;;;;;;;;;;;15.46;65.41;98741.50;5006395;28;103941;-59
2023/06/04 04:56:11;;;;;;;;;;;;;;;15.45;64.27;98751.31;5004943;27;103209;-60
2023/06/04 04:58:47;;;;;;;;;;;;;;;15.64;59.87;98746.00;5006518;27;102770;-59
2023/06/04 05:01:15;;;;;;;;;;;;;;;15.79;61.50;98742.91;5009099;28;104173;-60
2023/06/04 05:03:45;;;;;;;;;;;;;;;15.88;62.05;98750.06;5004265;27;103274;-59
2023/06/04 05:06:15;;;;;;;;;;;;;;;15.89;62.57;98743.72;5002903;27;102950;-59
2023/06/04 05:08:44;;;;;;;;;;;;;;;15.89;62.01;98749.91;5000062;27;102648;-60
2023/06/04 05:11:14;;;;;;;;;;;;;;;15.97;60.81;98751.88;5023675;27;102599;-60
2023/06/04 05:13:42;;;;;;;;;;;;;;;16.14;61.35;98756.47;5024188;27;104001;-59
2023/06/04 05:16:14;;;;;;;;;;;;;;;16.17;61.18;98748.16;5028078;27;104199;-60
2023/06/04 05:18:44;;;;;;;;;;;;;;;15.70;60.05;98752.59;5004948;27;102714;-58
2023/06/04 05:21:18;;;;;;;;;;;;;;;15.74;56.54;98755.81;5001716;27;102845;-59
2023/06/04 05:23:52;;;;;;;;;;;;;;;15.69;57.96;98761.56;5020488;27;104073;-60
2023/06/04 05:26:25;;;;;;;;;;;;;;;16.03;57.61;98772.59;5004731;27;105652;-58
2023/06/04 05:28:59;;;;;;;;;;;;;;;16.12;55.49;98763.75;5004700;27;102779;-58
2023/06/04 05:31:36;;;;;;;;;;;;;;;15.74;57.60;98772.66;5037831;27;103883;-58
2023/06/04 05:34:06;;;;;;;;;;;;;;;15.99;57.50;98781.88;5002421;27;103343;-58
2023/06/04 05:36:37;;;;;;;;;;;;;;;15.72;57.45;98776.44;5003723;27;103142;-59
2023/06/04 05:39:07;;;;;;;;;;;;;;;15.93;57.88;98782.44;5002212;27;102783;-59
2023/06/04 05:41:45;;;;;;;;;;;;;;;15.68;58.13;98780.34;5001978;27;104300;-58
2023/06/04 05:44:14;;;;;;;;;;;;;;;15.66;57.33;98777.84;4989207;27;104076;-60
2023/06/04 05:46:46;;;;;;;;;;;;;;;15.70;56.58;98781.03;4999203;27;104610;-58
2023/06/04 05:49:17;;;;;;;;;;;;;;;15.56;58.58;98780.50;4997435;27;102899;-59
2023/06/04 05:51:49;;;;;;;;;;;;;;;15.51;58.74;98780.06;4998759;27;102747;-60
2023/06/04 05:54:17;;;;;;;;;;;;;;;15.56;58.91;98775.16;4997677;27;105280;-58
2023/06/04 05:56:48;;;;;;;;;;;;;;;15.98;57.89;98790.84;4998782;27;103422;-58
2023/06/04 05:59:16;;;;;;;;;;;;;;;16.49;57.21;98783.28;5018942;27;102808;-60
2023/06/04 06:01:46;;;;;;;;;;;;;;;16.72;55.81;98787.28;5015366;27;102794;-60
2023/06/04 06:04:14;;;;;;;;;;;;;;;16.94;54.63;98779.88;4998427;27;103423;-60
2023/06/04 06:06:48;;;;;;;;;;;;;;;16.98;54.49;98781.28;4997324;27;103224;-58
2023/06/04 06:09:16;;;;;;;;;;;;;;;17.09;53.82;98783.75;5014368;27;102721;-58
2023/06/04 06:11:44;;;;;;;;;;;;;;;17.20;53.32;98788.88;5020627;27;104228;-57
2023/06/04 06:14:12;;;;;;;;;;;;;;;16.80;54.13;98794.56;5021435;27;103879;-58
2023/06/04 06:16:40;;;;;;;;;;;;;;;16.40;53.54;98780.63;5008947;27;103186;-58
2023/06/04 06:19:13;;;;;;;;;;;;;;;16.60;54.93;98790.28;4994552;27;103068;-58
2023/06/04 06:21:41;;;;;;;;;;;;;;;17.26;52.75;98797.09;5010376;27;103058;-59
2023/06/04 06:24:09;;;;;;;;;;;;;;;16.93;51.66;98786.19;5012689;27;104036;-58
2023/06/04 06:26:37;;;;;;;;;;;;;;;16.59;54.12;98789.44;4990096;27;104590;-59
2023/06/04 06:29:07;;;;;;;;;;;;;;;17.12;53.11;98802.13;4993457;27;104299;-59
2023/06/04 06:31:35;;;;;;;;;;;;;;;17.16;50.77;98801.66;5012443;27;102786;-59
2023/06/04 06:34:03;;;;;;;;;;;;;;;17.49;50.58;98805.50;5007737;27;103226;-59
2023/06/04 06:36:32;;;;;;;;;;;;;;;17.13;51.91;98801.13;5007675;27;103153;-59
2023/06/04 06:39:01;;;;;;;;;;;;;;;17.38;51.75;98806.56;5009519;27;103136;-59
2023/06/04 06:41:30;;;;;;;;;;;;;;;17.34;52.75;98804.38;5009099;27;102748;-59
2023/06/04 06:43:58;;;;;;;;;;;;;;;18.09;51.02;98800.41;5007981;27;103443;-59
2023/06/04 06:46:26;;;;;;;;;;;;;;;17.50;49.06;98807.19;4988041;27;103156;-60
2023/06/04 06:48:54;;;;;;;;;;;;;;;17.95;50.78;98805.31;4991806;27;103112;-58
2023/06/04 06:51:22;;;;;;;;;;;;;;;18.63;49.67;98802.81;5012133;27;104133;-58
2023/06/04 06:53:51;;;;;;;;;;;;;;;17.94;49.81;98803.63;5012444;27;103246;-59
2023/06/04 06:56:19;;;;;;;;;;;;;;;17.82;51.98;98818.22;5008531;27;103289;-59
2023/06/04 06:58:47;;;;;;;;;;;;;;;18.04;50.03;98808.91;4990730;27;102766;-58
2023/06/04 07:01:15;;;;;;;;;;;;;;;18.11;50.97;98803.75;4991638;27;102873;-60
2023/06/04 07:03:43;;;;;;;;;;;;;;;18.96;49.65;98796.59;5005528;27;104832;-61
2023/06/04 07:06:11;;;;;;;;;;;;;;;19.15;49.39;98797.31;5007614;27;103211;-61
2023/06/04 07:08:40;;;;;;;;;;;;;;;18.59;48.49;98800.59;4998235;27;102856;-59
2023/06/04 07:11:11;;;;;;;;;;;;;;;19.06;49.08;98807.16;5019969;27;104354;-60
2023/06/04 07:13:40;;;;;;;;;;;;;;;19.42;48.36;98813.19;5000227;27;104332;-60
2023/06/04 07:16:08;;;;;;;;;;;;;;;18.11;49.08;98817.13;4998392;27;103187;-59
2023/06/04 07:18:35;;;;;;;;;;;;;;;19.43;48.39;98814.84;5016011;27;102667;-60
2023/06/04 07:21:03;;;;;;;;;;;;;;;20.20;47.89;98809.91;5022432;27;103106;-60
2023/06/04 07:23:31;;;;;;;;;;;;;;;20.40;46.76;98810.44;5019011;27;103248;-60
2023/06/04 07:25:59;;;;;;;;;;;;;;;20.41;46.86;98805.88;5001683;27;103219;-60
2023/06/04 07:28:28;;;;;;;;;;;;;;;20.56;45.46;98815.75;5016309;27;102785;-60
2023/06/04 07:30:58;;;;;;;;;;;;;;;20.42;45.25;98808.41;5015615;27;103984;-60
2023/06/04 07:33:26;;;;;;;;;;;;;;;20.77;46.29;98804.47;5019437;27;103892;-60
2023/06/04 07:35:56;;;;;;;;;;;;;;;20.79;46.38;98803.28;5015644;27;103163;-60
2023/06/04 07:38:23;;;;;;;;;;;;;;;21.56;44.97;98808.84;5001792;27;102698;-60
2023/06/04 07:40:51;;;;;;;;;;;;;;;20.19;46.34;98810.91;5001773;27;102712;-60
2023/06/04 07:43:19;;;;;;;;;;;;;;;20.17;46.60;98810.25;4998584;27;103100;-60
2023/06/04 07:45:48;;;;;;;;;;;;;;;19.53;46.53;98808.38;5018458;27;103144;-59
2023/06/04 07:48:16;;;;;;;;;;;;;;;19.94;47.17;98800.34;5017668;27;102637;-59
2023/06/04 07:50:44;;;;;;;;;;;;;;;21.24;44.33;98805.31;5016625;27;102652;-60
2023/06/04 07:53:12;;;;;;;;;;;;;;;21.86;43.23;98799.88;5017157;27;104401;-60
2023/06/04 07:55:39;;;;;;;;;;;;;;;22.32;42.73;98798.84;5018020;27;102913;-60
2023/06/04 07:58:07;;;;;;;;;;;;;;;22.47;41.69;98802.41;4997462;27;102777;-60
2023/06/04 08:00:35;;;;;;;;;;;;;;;22.24;43.29;98788.16;4995377;27;103148;-59
2023/06/04 08:03:04;;;;;;;;;;;;;;;21.60;41.63;98796.69;4996059;27;103879;-60
2023/06/04 08:05:33;;;;;;;;;;;;;;;22.06;42.06;98778.75;5018749;27;103352;-60
2023/06/04 08:08:01;;;;;;;;;;;;;;;22.71;42.61;98782.47;4997797;27;102709;-61
2023/06/04 08:10:29;;;;;;;;;;;;;;;22.53;42.83;98788.19;5017800;27;102812;-61
2023/06/04 08:12:57;;;;;;;;;;;;;;;23.43;42.07;98786.16;5023464;27;103251;-60
2023/06/04 08:15:25;;;;;;;;;;;;;;;24.38;40.20;98778.56;5019373;27;103130;-60
2023/06/04 08:17:52;;;;;;;;;;;;;;;24.62;39.31;98772.69;5000954;27;102648;-61
2023/06/04 08:20:22;;;;;;;;;;;;;;;24.46;39.30;98770.28;5016374;27;103919;-61
2023/06/04 08:22:53;;;;;;;;;;;;;;;23.11;42.15;98775.75;5018575;27;103278;-60
2023/06/04 08:25:21;;;;;;;;;;;;;;;22.48;42.79;98779.81;5019194;27;103164;-61
2023/06/04 08:27:49;;;;;;;;;;;;;;;22.61;43.05;98778.34;5000046;27;103221;-61
2023/06/04 08:30:17;;;;;;;;;;;;;;;24.61;41.25;98768.34;5017030;27;102816;-60
2023/06/04 08:32:45;;;;;;;;;;;;;;;25.15;38.10;98773.81;5017025;27;103016;-61
2023/06/04 08:35:13;;;;;;;;;;;;;;;24.90;39.72;98779.97;5017901;27;103317;-61
2023/06/04 08:37:42;;;;;;;;;;;;;;;26.27;37.25;98774.13;4997939;27;102697;-61
2023/06/04 08:40:10;;;;;;;;;;;;;;;24.84;39.01;98780.75;5013829;27;104198;-61
2023/06/04 08:42:40;;;;;;;;;;;;;;;25.69;37.72;98781.94;4998721;27;103127;-61
2023/06/04 08:45:10;;;;;;;;;;;;;;;26.15;38.32;98786.63;5014950;27;102947;-62
2023/06/04 08:47:40;;;;;;;;;;;;;;;25.26;38.11;98784.06;4998350;27;102820;-61
2023/06/04 08:50:10;;;;;;;;;;;;;;;24.89;39.29;98783.69;5018360;27;104239;-61
2023/06/04 08:52:38;;;;;;;;;;;;;;;24.79;38.30;98776.78;5017492;27;103362;-62
2023/06/04 08:55:09;;;;;;;;;;;;;;;24.88;38.59;98780.16;5004009;27;103205;-64
2023/06/04 08:57:37;;;;;;;;;;;;;;;24.33;40.72;98774.78;4991827;27;103094;-62
2023/06/04 09:00:07;;;;;;;;;;;;;;;24.63;39.44;98770.81;5009417;27;102793;-64
2023/06/04 09:02:36;;;;;;;;;;;;;;;25.40;37.95;98787.66;5007914;27;103230;-64
2023/06/04 09:05:06;;;;;;;;;;;;;;;24.42;39.43;98771.72;4996159;27;103343;-64
2023/06/04 09:07:36;;;;;;;;;;;;;;;24.92;38.80;98781.44;5012814;27;102628;-65
2023/06/04 09:10:05;;;;;;;;;;;;;;;24.67;38.74;98777.50;4996951;27;102763;-64
2023/06/04 09:12:42;;;;;;;;;;;;;;;24.20;39.18;98783.59;5013586;27;103014;-65
2023/06/04 09:15:13;;;;;;;;;;;;;;;23.92;40.89;98785.38;4996904;27;103174;-64
2023/06/04 09:17:40;;;;;;;;;;;;;;;24.58;40.53;98782.22;5007610;27;102694;-64
2023/06/04 09:20:09;;;;;;;;;;;;;;;25.04;38.46;98781.69;5004923;27;104753;-64
2023/06/04 09:22:37;;;;;;;;;;;;;;;25.22;38.08;98779.25;4988805;27;103210;-65
2023/06/04 09:25:07;;;;;;;;;;;;;;;25.69;37.52;98784.66;5002275;27;103232;-64
2023/06/04 09:27:41;;;;;;;;;;;;;;;25.25;38.58;98778.88;5010404;27;102869;-65
2023/06/04 09:30:09;;;;;;;;;;;;;;;25.01;37.26;98782.09;4991306;27;102848;-65
2023/06/04 09:32:37;;;;;;;;;;;;;;;25.49;36.96;98780.25;5008506;27;103426;-65
2023/06/04 09:35:15;;;;;;;;;;;;;;;27.11;34.25;98777.75;5007328;27;103312;-65
2023/06/04 09:37:53;;;;;;;;;;;;;;;26.14;36.23;98782.22;4985458;27;102819;-65
2023/06/04 09:40:21;;;;;;;;;;;;;;;25.76;36.62;98771.97;5009314;27;104135;-65
2023/06/04 09:42:54;;;;;;;;;;;;;;;26.84;35.89;98762.59;5007094;27;103103;-65
2023/06/04 09:45:29;;;;;;;;;;;;;;;26.65;36.41;98764.28;5021698;27;103206;-65
2023/06/04 09:47:58;;;;;;;;;;;;;;;26.66;35.51;98763.25;5005952;27;103603;-65
2023/06/04 09:50:27;;;;;;;;;;;;;;;26.63;34.64;98769.09;5008900;27;102935;-62
2023/06/04 09:52:55;;;;;;;;;;;;;;;25.92;34.71;98755.34;5009172;27;104782;-63
2023/06/04 09:55:23;;;;;;;;;;;;;;;26.62;35.92;98762.00;5010420;27;104335;-65
2023/06/04 09:57:53;;;;;;;;;;;;;;;27.43;34.43;98760.50;4989862;27;103121;-65
2023/06/04 10:00:22;;;;;;;;;;;;;;;26.55;35.00;98766.59;4989164;27;103159;-62
2023/06/04 10:02:50;;;;;;;;;;;;;;;26.19;35.48;98764.31;5009324;27;104200;-62
2023/06/04 10:05:21;;;;;;;;;;;;;;;26.47;34.77;98764.13;4989117;27;103233;-62
2023/06/04 10:07:51;;;;;;;;;;;;;;;28.20;32.79;98753.94;4987253;27;103726;-57
2023/06/04 10:10:21;;;;;;;;;;;;;;;28.46;32.18;98761.88;4988930;27;103961;-58
2023/06/04 10:13:10;;;;;;;;;;;;;;;29.40;30.45;98752.47;5016581;27;103511;-60
2023/06/04 10:16:00;;;;;;;;;;;;;;;28.95;31.32;98750.06;5016787;27;102982;-62
2023/06/04 10:18:42;;;;;;;;;;;;;;;26.49;33.02;98756.59;5006781;27;102717;-62
2023/06/04 10:21:10;;;;;;;;;;;;;;;27.26;33.36;98748.44;5007024;27;102736;-61
2023/06/04 10:23:38;;;;;;;;;;;;;;;26.73;32.57;98752.38;5004980;27;104836;-66
2023/06/04 10:26:09;;;;;;;;;;;;;;;27.41;33.75;98748.22;4988659;27;103337;-66
2023/06/04 10:28:39;;;;;;;;;;;;;;;28.42;30.88;98748.94;4991081;27;102902;-66
2023/06/04 10:31:06;;;;;;;;;;;;;;;28.79;32.49;98738.97;5020617;27;104062;-66
2023/06/04 10:33:35;;;;;;;;;;;;;;;27.36;33.31;98742.56;5013228;27;102952;-66
2023/06/04 10:36:16;;;;;;;;;;;;;;;27.00;32.31;98741.25;5014109;27;102757;-67
2023/06/04 10:38:46;;;;;;;;;;;;;;;26.87;32.52;98744.03;4995803;27;102840;-66
2023/06/04 10:41:15;;;;;;;;;;;;;;;26.47;33.49;98742.44;4996486;27;102842;-66
2023/06/04 10:43:44;;;;;;;;;;;;;;;26.41;34.67;98735.97;5014370;27;103218;-66
2023/06/04 10:46:13;;;;;;;;;;;;;;;27.13;33.87;98737.69;5011417;27;103164;-66
2023/06/04 10:48:48;;;;;;;;;;;;;;;26.57;33.40;98742.84;5022915;27;102817;-66
2023/06/04 10:51:16;;;;;;;;;;;;;;;26.85;32.38;98734.44;5014376;27;104179;-66
2023/06/04 10:53:44;;;;;;;;;;;;;;;26.54;33.25;98732.41;5010724;27;104270;-66
2023/06/04 10:56:12;;;;;;;;;;;;;;;26.26;32.16;98739.97;5013890;27;103167;-66
2023/06/04 10:58:40;;;;;;;;;;;;;;;26.16;33.41;98740.38;5011580;27;103139;-66
2023/06/04 11:01:09;;;;;;;;;;;;;;;27.31;32.28;98740.50;5009421;27;102762;-66
2023/06/04 11:03:40;;;;;;;;;;;;;;;26.47;32.62;98742.44;5010286;27;103137;-67
2023/06/04 11:06:17;;;;;;;;;;;;;;;27.04;33.20;98734.38;5008811;27;103267;-65
2023/06/04 11:08:45;;;;;;;;;;;;;;;27.27;31.54;98733.84;5009087;27;102759;-66
2023/06/04 11:11:14;;;;;;;;;;;;;;;28.03;32.07;98729.25;4991302;27;104040;-67
2023/06/04 11:13:42;;;;;;;;;;;;;;;26.37;32.15;98731.19;5009151;27;103242;-67
2023/06/04 11:16:18;;;;;;;;;;;;;;;27.13;33.84;98734.13;5011580;27;103002;-66
2023/06/04 11:18:55;;;;;;;;;;;;;;;26.78;31.55;98729.03;5008249;27;102747;-66
2023/06/04 11:21:23;;;;;;;;;;;;;;;27.05;32.84;98730.63;5014275;27;102762;-65
2023/06/04 11:23:55;;;;;;;;;;;;;;;26.19;31.62;98739.13;5009209;27;103380;-67
2023/06/04 11:26:30;;;;;;;;;;;;;;;27.04;32.81;98738.97;4990291;27;104114;-66
2023/06/04 11:28:58;;;;;;;;;;;;;;;27.30;32.82;98732.59;5012630;27;102837;-65
2023/06/04 11:31:27;;;;;;;;;;;;;;;27.04;31.92;98728.94;5009507;27;102760;-67
2023/06/04 11:33:55;;;;;;;;;;;;;;;26.83;32.00;98731.97;5008081;27;103302;-67
2023/06/04 11:36:25;;;;;;;;;;;;;;;27.34;32.41;98729.22;5010689;27;103122;-67
2023/06/04 11:38:59;;;;;;;;;;;;;;;28.29;29.79;98730.06;5010457;27;102716;-67
2023/06/04 11:41:28;;;;;;;;;;;;;;;27.11;31.21;98728.94;4994594;27;103091;-67
2023/06/04 11:43:56;;;;;;;;;;;;;;;27.92;32.05;98727.22;5011899;27;103793;-67
2023/06/04 11:46:24;;;;;;;;;;;;;;;27.38;31.76;98724.19;5010225;27;103264;-67
2023/06/04 11:48:53;;;;;;;;;;;;;;;28.88;30.65;98722.16;5012247;27;103591;-67
2023/06/04 11:51:21;;;;;;;;;;;;;;;28.00;30.52;98720.66;5010922;27;102749;-67
2023/06/04 11:53:50;;;;;;;;;;;;;;;28.11;30.54;98719.97;4992130;27;103317;-68
2023/06/04 11:56:18;;;;;;;;;;;;;;;28.39;31.58;98717.63;4992279;27;102884;-67
2023/06/04 11:58:46;;;;;;;;;;;;;;;29.08;29.22;98722.72;5010108;27;102655;-66
2023/06/04 12:01:14;;;;;;;;;;;;;;;27.30;30.96;98719.88;5006232;27;104483;-67
2023/06/04 12:03:43;;;;;;;;;;;;;;;27.41;31.65;98718.38;5009379;27;103390;-67
2023/06/04 12:06:16;;;;;;;;;;;;;;;27.78;30.14;98713.94;5007965;27;103177;-68
2023/06/04 12:08:48;;;;;;;;;;;;;;;27.41;30.53;98718.38;5010394;27;103258;-67
2023/06/04 12:11:26;;;;;;;;;;;;;;;27.52;30.22;98712.25;5009179;27;103097;-67
2023/06/04 12:13:54;;;;;;;;;;;;;;;28.33;30.46;98706.81;5009446;27;103600;-66
2023/06/04 12:16:23;;;;;;;;;;;;;;;27.42;29.81;98711.91;5009983;27;103140;-67
2023/06/04 12:18:51;;;;;;;;;;;;;;;26.93;30.33;98710.66;5008230;27;102742;-67
2023/06/04 12:21:26;;;;;;;;;;;;;;;28.37;29.81;98708.88;5009306;27;103730;-66
2023/06/04 12:23:55;;;;;;;;;;;;;;;28.27;29.07;98713.16;5008993;27;103305;-66
2023/06/04 12:26:29;;;;;;;;;;;;;;;28.09;30.50;98706.63;4991685;27;103491;-66
2023/06/04 12:29:01;;;;;;;;;;;;;;;27.04;30.30;98704.56;5009737;27;103188;-67
2023/06/04 12:31:31;;;;;;;;;;;;;;;27.56;29.43;98689.91;4993137;27;102795;-67
2023/06/04 12:34:00;;;;;;;;;;;;;;;28.27;29.73;98694.16;5010662;27;103804;-66
2023/06/04 12:36:30;;;;;;;;;;;;;;;28.88;28.58;98692.25;4991991;27;103358;-67
2023/06/04 12:38:59;;;;;;;;;;;;;;;30.25;28.23;98694.84;5010418;27;102804;-67
2023/06/04 12:41:27;;;;;;;;;;;;;;;30.11;27.55;98689.84;5011134;27;103744;-67
2023/06/04 12:43:55;;;;;;;;;;;;;;;29.60;28.59;98693.16;4991600;27;103344;-67
2023/06/04 12:46:23;;;;;;;;;;;;;;;27.92;29.66;98704.66;5010690;27;103272;-66
2023/06/04 12:48:52;;;;;;;;;;;;;;;28.69;30.60;98696.00;5009649;27;102683;-67